createdAt,value
2022-09-30T00:00:29.745Z,1003.54
2022-09-30T00:01:30.222Z,1003.53
2022-09-30T00:02:30.441Z,1003.55
2022-09-30T00:03:30.777Z,1003.57
2022-09-30T00:04:29.642Z,1003.54
2022-09-30T00:05:29.642Z,1003.57
2022-09-30T00:06:29.995Z,1003.56
2022-09-30T00:07:29.613Z,1003.60
2022-09-30T00:08:50.650Z,1003.58
2022-09-30T00:09:29.682Z,1003.60
2022-09-30T00:10:29.549Z,1003.60
2022-09-30T00:11:29.776Z,1003.61
2022-09-30T00:12:29.546Z,1003.62
2022-09-30T00:13:29.527Z,1003.61
2022-09-30T00:14:29.548Z,1003.62
2022-09-30T00:15:29.536Z,1003.64
2022-09-30T00:16:29.894Z,1003.62
2022-09-30T00:17:29.481Z,1003.65
2022-09-30T00:18:29.497Z,1003.65
2022-09-30T00:19:29.473Z,1003.68
2022-09-30T00:20:29.446Z,1003.68
2022-09-30T00:21:29.796Z,1003.67
2022-09-30T00:22:29.415Z,1003.69
2022-09-30T00:23:29.448Z,1003.73
2022-09-30T00:24:29.457Z,1003.71
2022-09-30T00:25:29.410Z,1003.71
2022-09-30T00:26:29.893Z,1003.69
2022-09-30T00:27:29.365Z,1003.70
2022-09-30T00:28:29.386Z,1003.66
2022-09-30T00:29:29.376Z,1003.68
2022-09-30T00:30:29.346Z,1003.70
2022-09-30T00:31:30.040Z,1003.69
2022-09-30T00:32:29.339Z,1003.69
2022-09-30T00:33:29.337Z,1003.68
2022-09-30T00:34:29.315Z,1003.68
2022-09-30T00:35:29.327Z,1003.70
2022-09-30T00:36:29.286Z,1003.73
2022-09-30T00:37:29.276Z,1003.73
2022-09-30T00:38:29.265Z,1003.73
2022-09-30T00:39:29.783Z,1003.72
2022-09-30T00:40:29.391Z,1003.72
2022-09-30T00:41:29.297Z,1003.74
2022-09-30T00:42:30.470Z,1003.70
2022-09-30T00:43:29.447Z,1003.72
2022-09-30T00:44:29.191Z,1003.70
2022-09-30T00:45:29.198Z,1003.71
2022-09-30T00:46:29.204Z,1003.69
2022-09-30T00:47:29.170Z,1003.70
2022-09-30T00:48:29.166Z,1003.69
2022-09-30T00:49:29.146Z,1003.71
2022-09-30T00:50:29.166Z,1003.74
2022-09-30T00:51:29.129Z,1003.74
2022-09-30T00:52:29.147Z,1003.71
2022-09-30T00:53:29.096Z,1003.71
2022-09-30T00:54:29.363Z,1003.73
2022-09-30T00:55:29.225Z,1003.68
2022-09-30T00:56:29.177Z,1003.72
2022-09-30T00:57:29.074Z,1003.72
2022-09-30T00:58:29.052Z,1003.74
2022-09-30T00:59:29.225Z,1003.70
2022-09-30T01:00:29.102Z,1003.72
2022-09-30T01:01:29.010Z,1003.76
2022-09-30T01:02:29.000Z,1003.75
2022-09-30T01:03:28.992Z,1003.77
2022-09-30T01:04:29.301Z,1003.79
2022-09-30T01:05:29.035Z,1003.83
2022-09-30T01:06:28.961Z,1003.81
2022-09-30T01:07:29.163Z,1003.79
2022-09-30T01:08:28.953Z,1003.79
2022-09-30T01:09:29.310Z,1003.80
2022-09-30T01:10:28.902Z,1003.78
2022-09-30T01:11:28.902Z,1003.81
2022-09-30T01:12:28.882Z,1003.85
2022-09-30T01:13:28.893Z,1003.85
2022-09-30T01:14:29.182Z,1003.81
2022-09-30T01:15:29.012Z,1003.81
2022-09-30T01:16:28.928Z,1003.86
2022-09-30T01:17:28.841Z,1003.81
2022-09-30T01:18:28.847Z,1003.83
2022-09-30T01:19:29.071Z,1003.84
2022-09-30T01:20:28.809Z,1003.84
2022-09-30T01:21:28.813Z,1003.85
2022-09-30T01:22:28.794Z,1003.82
2022-09-30T01:23:28.760Z,1003.79
2022-09-30T01:24:28.789Z,1003.81
2022-09-30T01:25:28.759Z,1003.89
2022-09-30T01:26:28.740Z,1003.84
2022-09-30T01:27:28.789Z,1003.85
2022-09-30T01:28:28.832Z,1003.88
2022-09-30T01:29:28.905Z,1003.89
2022-09-30T01:30:28.723Z,1003.88
2022-09-30T01:31:28.773Z,1003.95
2022-09-30T01:32:28.681Z,1003.93
2022-09-30T01:33:28.678Z,1003.97
2022-09-30T01:34:28.714Z,1003.96
2022-09-30T01:35:28.665Z,1003.97
2022-09-30T01:36:28.664Z,1003.93
2022-09-30T01:37:28.629Z,1003.92
2022-09-30T01:38:28.625Z,1003.98
2022-09-30T01:39:28.631Z,1003.94
2022-09-30T01:40:28.602Z,1003.95
2022-09-30T01:41:28.602Z,1003.93
2022-09-30T01:42:28.568Z,1003.91
2022-09-30T01:43:28.570Z,1003.96
2022-09-30T01:44:28.642Z,1003.94
2022-09-30T01:45:28.542Z,1003.93
2022-09-30T01:46:28.573Z,1003.91
2022-09-30T01:47:28.540Z,1003.90
2022-09-30T01:48:28.513Z,1003.90
2022-09-30T01:49:28.487Z,1003.93
2022-09-30T01:50:28.490Z,1003.88
2022-09-30T01:51:28.471Z,1003.87
2022-09-30T01:52:28.461Z,1003.88
2022-09-30T01:53:28.471Z,1003.87
2022-09-30T01:54:28.427Z,1003.85
2022-09-30T01:55:28.418Z,1003.88
2022-09-30T01:56:28.430Z,1003.87
2022-09-30T01:57:28.511Z,1003.88
2022-09-30T01:58:28.401Z,1003.88
2022-09-30T01:59:28.391Z,1003.92
2022-09-30T02:00:28.407Z,1003.90
2022-09-30T02:01:28.348Z,1003.91
2022-09-30T02:02:28.400Z,1003.91
2022-09-30T02:03:28.335Z,1003.93
2022-09-30T02:04:28.341Z,1003.87
2022-09-30T02:05:28.320Z,1003.88
2022-09-30T02:06:28.308Z,1003.87
2022-09-30T02:07:28.299Z,1003.88
2022-09-30T02:08:28.313Z,1003.89
2022-09-30T02:09:28.626Z,1003.86
2022-09-30T02:10:28.260Z,1003.86
2022-09-30T02:11:28.227Z,1003.84
2022-09-30T02:12:28.895Z,1003.86
2022-09-30T02:13:28.227Z,1003.83
2022-09-30T02:14:28.220Z,1003.80
2022-09-30T02:15:28.235Z,1003.82
2022-09-30T02:16:28.255Z,1003.84
2022-09-30T02:17:28.416Z,1003.82
2022-09-30T02:18:28.181Z,1003.85
2022-09-30T02:19:28.164Z,1003.87
2022-09-30T02:20:28.660Z,1003.82
2022-09-30T02:21:28.160Z,1003.86
2022-09-30T02:22:28.199Z,1003.80
2022-09-30T02:23:28.119Z,1003.86
2022-09-30T02:24:28.116Z,1003.88
2022-09-30T02:25:28.100Z,1003.88
2022-09-30T02:26:28.094Z,1003.90
2022-09-30T02:27:28.734Z,1003.94
2022-09-30T02:28:28.069Z,1003.94
2022-09-30T02:29:28.057Z,1003.96
2022-09-30T02:30:28.066Z,1004.01
2022-09-30T02:31:28.090Z,1003.96
2022-09-30T02:32:28.169Z,1003.99
2022-09-30T02:33:27.994Z,1004.05
2022-09-30T02:34:28.020Z,1004.03
2022-09-30T02:35:28.014Z,1004.04
2022-09-30T02:36:27.965Z,1004.05
2022-09-30T02:37:28.050Z,1004.07
2022-09-30T02:38:27.958Z,1004.04
2022-09-30T02:39:27.923Z,1004.04
2022-09-30T02:40:27.923Z,1004.04
2022-09-30T02:41:27.935Z,1004.03
2022-09-30T02:42:28.024Z,1003.99
2022-09-30T02:43:27.895Z,1004.00
2022-09-30T02:44:27.882Z,1004.00
2022-09-30T02:45:27.874Z,1004.00
2022-09-30T02:46:28.028Z,1003.92
2022-09-30T02:47:28.152Z,1003.95
2022-09-30T02:48:27.832Z,1003.99
2022-09-30T02:49:28.127Z,1003.97
2022-09-30T02:50:27.806Z,1003.97
2022-09-30T02:51:27.818Z,1003.94
2022-09-30T02:52:27.916Z,1003.99
2022-09-30T02:53:27.770Z,1004.00
2022-09-30T02:54:27.797Z,1004.01
2022-09-30T02:55:27.757Z,1004.01
2022-09-30T02:56:27.742Z,1004.07
2022-09-30T02:57:27.982Z,1004.09
2022-09-30T02:58:28.801Z,1004.10
2022-09-30T02:59:27.722Z,1004.15
2022-09-30T03:00:27.851Z,1004.18
2022-09-30T03:01:27.683Z,1004.22
2022-09-30T03:02:27.680Z,1004.26
2022-09-30T03:03:27.696Z,1004.29
2022-09-30T03:04:27.662Z,1004.32
2022-09-30T03:05:27.653Z,1004.33
2022-09-30T03:06:27.644Z,1004.31
2022-09-30T03:07:27.619Z,1004.32
2022-09-30T03:08:27.623Z,1004.34
2022-09-30T03:09:27.650Z,1004.34
2022-09-30T03:10:28.390Z,1004.29
2022-09-30T03:11:27.595Z,1004.30
2022-09-30T03:12:27.594Z,1004.29
2022-09-30T03:13:27.616Z,1004.27
2022-09-30T03:14:27.572Z,1004.30
2022-09-30T03:15:27.549Z,1004.28
2022-09-30T03:16:27.536Z,1004.27
2022-09-30T03:17:27.500Z,1004.31
2022-09-30T03:18:27.498Z,1004.33
2022-09-30T03:19:27.499Z,1004.33
2022-09-30T03:20:27.521Z,1004.35
2022-09-30T03:21:27.489Z,1004.40
2022-09-30T03:22:27.928Z,1004.39
2022-09-30T03:23:27.459Z,1004.41
2022-09-30T03:24:27.438Z,1004.42
2022-09-30T03:25:27.414Z,1004.44
2022-09-30T03:26:27.421Z,1004.44
2022-09-30T03:27:27.430Z,1004.45
2022-09-30T03:28:27.402Z,1004.43
2022-09-30T03:29:27.392Z,1004.46
2022-09-30T03:30:27.382Z,1004.46
2022-09-30T03:31:27.422Z,1004.50
2022-09-30T03:32:27.694Z,1004.44
2022-09-30T03:33:27.339Z,1004.45
2022-09-30T03:34:27.348Z,1004.48
2022-09-30T03:35:27.331Z,1004.50
2022-09-30T03:36:27.326Z,1004.47
2022-09-30T03:37:27.322Z,1004.51
2022-09-30T03:38:27.299Z,1004.51
2022-09-30T03:39:27.269Z,1004.47
2022-09-30T03:40:27.258Z,1004.50
2022-09-30T03:41:27.251Z,1004.50
2022-09-30T03:42:27.261Z,1004.50
2022-09-30T03:43:27.219Z,1004.51
2022-09-30T03:44:27.223Z,1004.48
2022-09-30T03:45:27.208Z,1004.50
2022-09-30T03:46:27.269Z,1004.48
2022-09-30T03:47:27.209Z,1004.50
2022-09-30T03:48:27.213Z,1004.49
2022-09-30T03:49:27.175Z,1004.51
2022-09-30T03:50:27.229Z,1004.53
2022-09-30T03:51:27.148Z,1004.51
2022-09-30T03:52:27.143Z,1004.50
2022-09-30T03:53:27.148Z,1004.52
2022-09-30T03:54:27.119Z,1004.50
2022-09-30T03:55:27.125Z,1004.51
2022-09-30T03:56:27.094Z,1004.48
2022-09-30T03:57:27.085Z,1004.51
2022-09-30T03:58:27.113Z,1004.55
2022-09-30T03:59:27.092Z,1004.51
2022-09-30T04:00:27.191Z,1004.53
2022-09-30T04:01:27.029Z,1004.54
2022-09-30T04:02:27.126Z,1004.54
2022-09-30T04:03:30.800Z,1004.60
2022-09-30T04:04:27.022Z,1004.63
2022-09-30T04:05:28.097Z,1004.62
2022-09-30T04:06:26.993Z,1004.63
2022-09-30T04:07:26.994Z,1004.60
2022-09-30T04:08:29.761Z,1004.64
2022-09-30T04:09:27.078Z,1004.59
2022-09-30T04:10:27.025Z,1004.63
2022-09-30T04:11:26.941Z,1004.64
2022-09-30T04:12:26.912Z,1004.66
2022-09-30T04:13:26.909Z,1004.64
2022-09-30T04:14:26.910Z,1004.66
2022-09-30T04:15:27.028Z,1004.67
2022-09-30T04:16:26.927Z,1004.67
2022-09-30T04:17:26.868Z,1004.65
2022-09-30T04:18:26.907Z,1004.65
2022-09-30T04:19:26.826Z,1004.64
2022-09-30T04:20:27.159Z,1004.69
2022-09-30T04:21:26.847Z,1004.68
2022-09-30T04:22:26.848Z,1004.68
2022-09-30T04:23:26.826Z,1004.67
2022-09-30T04:24:26.807Z,1004.69
2022-09-30T04:25:26.948Z,1004.66
2022-09-30T04:26:26.781Z,1004.67
2022-09-30T04:27:26.757Z,1004.72
2022-09-30T04:28:26.750Z,1004.74
2022-09-30T04:29:26.750Z,1004.76
2022-09-30T04:30:31.235Z,1004.76
2022-09-30T04:31:27.781Z,1004.82
2022-09-30T04:32:26.698Z,1004.78
2022-09-30T04:33:26.680Z,1004.82
2022-09-30T04:34:26.699Z,1004.85
2022-09-30T04:35:26.942Z,1004.83
2022-09-30T04:36:26.668Z,1004.87
2022-09-30T04:37:26.640Z,1004.89
2022-09-30T04:38:26.646Z,1004.89
2022-09-30T04:39:26.644Z,1004.91
2022-09-30T04:40:26.636Z,1004.90
2022-09-30T04:41:26.593Z,1004.90
2022-09-30T04:42:26.620Z,1004.89
2022-09-30T04:43:26.582Z,1004.90
2022-09-30T04:44:26.640Z,1004.90
2022-09-30T04:45:26.601Z,1004.92
2022-09-30T04:46:26.567Z,1004.96
2022-09-30T04:47:26.546Z,1004.92
2022-09-30T04:48:26.513Z,1004.95
2022-09-30T04:49:26.537Z,1005.02
2022-09-30T04:50:26.528Z,1005.05
2022-09-30T04:51:26.484Z,1005.01
2022-09-30T04:52:26.532Z,1005.02
2022-09-30T04:53:26.480Z,1005.07
2022-09-30T04:54:26.462Z,1005.08
2022-09-30T04:55:26.435Z,1005.10
2022-09-30T04:56:26.455Z,1005.08
2022-09-30T04:57:26.444Z,1005.11
2022-09-30T04:58:27.122Z,1005.12
2022-09-30T04:59:26.425Z,1005.14
2022-09-30T05:00:26.386Z,1005.13
2022-09-30T05:01:26.411Z,1005.13
2022-09-30T05:02:26.402Z,1005.17
2022-09-30T05:03:33.382Z,1005.14
2022-09-30T05:04:26.370Z,1005.15
2022-09-30T05:05:26.332Z,1005.17
2022-09-30T05:06:26.344Z,1005.17
2022-09-30T05:07:26.316Z,1005.20
2022-09-30T05:08:26.311Z,1005.23
2022-09-30T05:09:26.322Z,1005.27
2022-09-30T05:10:26.275Z,1005.30
2022-09-30T05:11:26.287Z,1005.33
2022-09-30T05:12:26.277Z,1005.37
2022-09-30T05:13:26.276Z,1005.34
2022-09-30T05:14:26.232Z,1005.37
2022-09-30T05:15:26.259Z,1005.35
2022-09-30T05:16:26.302Z,1005.37
2022-09-30T05:17:26.194Z,1005.38
2022-09-30T05:18:26.180Z,1005.37
2022-09-30T05:19:26.190Z,1005.40
2022-09-30T05:20:26.175Z,1005.36
2022-09-30T05:21:26.174Z,1005.35
2022-09-30T05:22:26.159Z,1005.35
2022-09-30T05:23:26.145Z,1005.36
2022-09-30T05:24:26.124Z,1005.33
2022-09-30T05:25:26.119Z,1005.38
2022-09-30T05:26:26.114Z,1005.39
2022-09-30T05:27:26.127Z,1005.38
2022-09-30T05:28:26.083Z,1005.39
2022-09-30T05:29:26.088Z,1005.37
2022-09-30T05:30:26.057Z,1005.39
2022-09-30T05:31:26.117Z,1005.38
2022-09-30T05:32:26.028Z,1005.39
2022-09-30T05:33:26.050Z,1005.40
2022-09-30T05:34:26.005Z,1005.41
2022-09-30T05:35:26.018Z,1005.41
2022-09-30T05:36:26.005Z,1005.41
2022-09-30T05:37:25.997Z,1005.40
2022-09-30T05:38:25.962Z,1005.39
2022-09-30T05:39:25.969Z,1005.41
2022-09-30T05:40:25.941Z,1005.45
2022-09-30T05:41:25.955Z,1005.45
2022-09-30T05:42:25.936Z,1005.43
2022-09-30T05:43:25.926Z,1005.48
2022-09-30T05:44:25.928Z,1005.49
2022-09-30T05:45:25.915Z,1005.53
2022-09-30T05:46:25.941Z,1005.55
2022-09-30T05:47:25.893Z,1005.54
2022-09-30T05:48:25.881Z,1005.55
2022-09-30T05:49:25.849Z,1005.54
2022-09-30T05:50:25.862Z,1005.58
2022-09-30T05:51:25.827Z,1005.61
2022-09-30T05:52:25.822Z,1005.62
2022-09-30T05:53:25.824Z,1005.61
2022-09-30T05:54:25.823Z,1005.62
2022-09-30T05:55:25.800Z,1005.65
2022-09-30T05:56:25.777Z,1005.64
2022-09-30T05:57:25.776Z,1005.68
2022-09-30T05:58:25.780Z,1005.65
2022-09-30T05:59:25.767Z,1005.65
2022-09-30T06:00:25.717Z,1005.67
2022-09-30T06:01:25.743Z,1005.65
2022-09-30T06:02:25.873Z,1005.67
2022-09-30T06:03:25.722Z,1005.70
2022-09-30T06:04:25.695Z,1005.75
2022-09-30T06:05:25.684Z,1005.75
2022-09-30T06:06:25.696Z,1005.77
2022-09-30T06:07:25.681Z,1005.76
2022-09-30T06:08:25.636Z,1005.78
2022-09-30T06:09:25.919Z,1005.75
2022-09-30T06:10:25.644Z,1005.76
2022-09-30T06:11:25.631Z,1005.74
2022-09-30T06:12:25.674Z,1005.76
2022-09-30T06:13:25.732Z,1005.77
2022-09-30T06:14:25.574Z,1005.74
2022-09-30T06:15:25.584Z,1005.79
2022-09-30T06:16:34.532Z,1005.77
2022-09-30T06:17:26.354Z,1005.80
2022-09-30T06:18:25.538Z,1005.82
2022-09-30T06:19:25.517Z,1005.83
2022-09-30T06:20:25.511Z,1005.84
2022-09-30T06:21:25.686Z,1005.86
2022-09-30T06:22:25.475Z,1005.88
2022-09-30T06:23:25.497Z,1005.84
2022-09-30T06:24:25.477Z,1005.88
2022-09-30T06:25:32.481Z,1005.89
2022-09-30T06:26:25.428Z,1005.95
2022-09-30T06:27:32.453Z,1005.99
2022-09-30T06:28:25.414Z,1006.02
2022-09-30T06:29:32.434Z,1006.02
2022-09-30T06:30:35.210Z,1006.01
2022-09-30T06:31:32.451Z,1006.02
2022-09-30T06:32:25.376Z,1006.02
2022-09-30T06:33:25.384Z,1006.01
2022-09-30T06:34:25.363Z,1006.01
2022-09-30T06:35:25.375Z,1006.03
2022-09-30T06:36:25.443Z,1006.00
2022-09-30T06:37:25.320Z,1006.03
2022-09-30T06:38:25.324Z,1006.08
2022-09-30T06:39:25.316Z,1006.08
2022-09-30T06:40:25.335Z,1006.09
2022-09-30T06:41:25.317Z,1006.09
2022-09-30T06:42:25.311Z,1006.11
2022-09-30T06:43:25.259Z,1006.14
2022-09-30T06:44:25.273Z,1006.14
2022-09-30T06:45:32.296Z,1006.17
2022-09-30T06:46:30.541Z,1006.18
2022-09-30T06:47:26.155Z,1006.19
2022-09-30T06:48:36.130Z,1006.19
2022-09-30T06:49:27.410Z,1006.24
2022-09-30T06:50:25.971Z,1006.24
2022-09-30T06:51:25.200Z,1006.21
2022-09-30T06:52:25.203Z,1006.24
2022-09-30T06:53:25.148Z,1006.26
2022-09-30T06:54:25.142Z,1006.27
2022-09-30T06:55:25.128Z,1006.27
2022-09-30T06:56:25.151Z,1006.27
2022-09-30T06:57:25.119Z,1006.29
2022-09-30T06:58:25.101Z,1006.30
2022-09-30T06:59:25.089Z,1006.27
2022-09-30T07:00:25.182Z,1006.30
2022-09-30T07:01:25.151Z,1006.28
2022-09-30T07:02:25.122Z,1006.27
2022-09-30T07:03:25.099Z,1006.32
2022-09-30T07:04:25.041Z,1006.32
2022-09-30T07:05:25.026Z,1006.31
2022-09-30T07:06:25.006Z,1006.27
2022-09-30T07:07:25.008Z,1006.25
2022-09-30T07:08:25.021Z,1006.29
2022-09-30T07:09:25.118Z,1006.29
2022-09-30T07:10:25.040Z,1006.31
2022-09-30T07:11:24.959Z,1006.32
2022-09-30T07:12:24.950Z,1006.30
2022-09-30T07:13:24.969Z,1006.35
2022-09-30T07:14:24.950Z,1006.32
2022-09-30T07:15:24.925Z,1006.32
2022-09-30T07:16:24.941Z,1006.31
2022-09-30T07:17:24.913Z,1006.31
2022-09-30T07:18:24.891Z,1006.29
2022-09-30T07:19:24.928Z,1006.32
2022-09-30T07:20:24.871Z,1006.32
2022-09-30T07:21:24.850Z,1006.33
2022-09-30T07:22:24.876Z,1006.33
2022-09-30T07:23:26.933Z,1006.35
2022-09-30T07:24:24.820Z,1006.36
2022-09-30T07:25:24.822Z,1006.39
2022-09-30T07:26:24.811Z,1006.34
2022-09-30T07:27:24.787Z,1006.39
2022-09-30T07:28:24.758Z,1006.37
2022-09-30T07:29:24.935Z,1006.38
2022-09-30T07:30:27.292Z,1006.37
2022-09-30T07:31:34.043Z,1006.40
2022-09-30T07:32:25.813Z,1006.43
2022-09-30T07:33:24.735Z,1006.42
2022-09-30T07:34:24.699Z,1006.44
2022-09-30T07:35:24.698Z,1006.43
2022-09-30T07:36:29.714Z,1006.43
2022-09-30T07:37:25.680Z,1006.44
2022-09-30T07:38:24.700Z,1006.44
2022-09-30T07:39:24.711Z,1006.44
2022-09-30T07:40:24.681Z,1006.46
2022-09-30T07:41:24.616Z,1006.47
2022-09-30T07:42:24.721Z,1006.50
2022-09-30T07:43:24.656Z,1006.48
2022-09-30T07:44:24.595Z,1006.48
2022-09-30T07:45:24.651Z,1006.47
2022-09-30T07:46:24.581Z,1006.45
2022-09-30T07:47:24.585Z,1006.49
2022-09-30T07:48:24.564Z,1006.51
2022-09-30T07:49:24.984Z,1006.50
2022-09-30T07:50:24.599Z,1006.49
2022-09-30T07:51:24.532Z,1006.47
2022-09-30T07:52:24.509Z,1006.47
2022-09-30T07:53:24.517Z,1006.53
2022-09-30T07:54:24.500Z,1006.51
2022-09-30T07:55:24.486Z,1006.53
2022-09-30T07:56:24.475Z,1006.52
2022-09-30T07:57:24.503Z,1006.55
2022-09-30T07:58:24.446Z,1006.52
2022-09-30T07:59:24.538Z,1006.54
2022-09-30T08:00:41.596Z,1006.56
2022-09-30T08:01:25.523Z,1006.56
2022-09-30T08:02:24.430Z,1006.53
2022-09-30T08:03:24.438Z,1006.57
2022-09-30T08:04:24.364Z,1006.56
2022-09-30T08:05:24.387Z,1006.59
2022-09-30T08:06:24.361Z,1006.62
2022-09-30T08:07:24.374Z,1006.68
2022-09-30T08:08:24.325Z,1006.64
2022-09-30T08:09:24.466Z,1006.73
2022-09-30T08:10:24.338Z,1006.74
2022-09-30T08:11:25.154Z,1006.78
2022-09-30T08:12:24.293Z,1006.75
2022-09-30T08:13:24.292Z,1006.77
2022-09-30T08:14:24.893Z,1006.79
2022-09-30T08:15:24.275Z,1006.82
2022-09-30T08:16:24.278Z,1006.82
2022-09-30T08:17:24.272Z,1006.82
2022-09-30T08:18:24.231Z,1006.83
2022-09-30T08:19:24.217Z,1006.81
2022-09-30T08:20:24.201Z,1006.79
2022-09-30T08:21:24.199Z,1006.80
2022-09-30T08:22:24.184Z,1006.78
2022-09-30T08:23:24.215Z,1006.79
2022-09-30T08:24:24.266Z,1006.82
2022-09-30T08:25:24.161Z,1006.80
2022-09-30T08:26:24.134Z,1006.79
2022-09-30T08:27:24.210Z,1006.79
2022-09-30T08:28:24.130Z,1006.80
2022-09-30T08:29:49.889Z,1006.81
2022-09-30T08:30:25.344Z,1006.80
2022-09-30T08:31:24.161Z,1006.81
2022-09-30T08:32:24.072Z,1006.84
2022-09-30T08:33:24.063Z,1006.83
2022-09-30T08:34:24.230Z,1006.82
2022-09-30T08:35:24.076Z,1006.85
2022-09-30T08:36:24.052Z,1006.88
2022-09-30T08:37:24.002Z,1006.84
2022-09-30T08:38:24.027Z,1006.84
2022-09-30T08:39:24.013Z,1006.87
2022-09-30T08:40:24.004Z,1006.87
2022-09-30T08:41:24.016Z,1006.87
2022-09-30T08:42:42.423Z,1006.87
2022-09-30T08:43:24.982Z,1006.84
2022-09-30T08:44:24.078Z,1006.85
2022-09-30T08:45:23.953Z,1006.85
2022-09-30T08:46:23.976Z,1006.89
2022-09-30T08:47:23.923Z,1006.91
2022-09-30T08:48:23.916Z,1006.88
2022-09-30T08:49:24.019Z,1006.86
2022-09-30T08:50:23.944Z,1006.94
2022-09-30T08:51:23.881Z,1006.94
2022-09-30T08:52:30.381Z,1006.93
2022-09-30T08:53:24.892Z,1006.99
2022-09-30T08:54:23.833Z,1006.99
2022-09-30T08:55:23.818Z,1006.99
2022-09-30T08:56:23.811Z,1006.98
2022-09-30T08:57:23.838Z,1006.95
2022-09-30T08:58:23.800Z,1006.98
2022-09-30T08:59:23.899Z,1006.97
2022-09-30T09:00:23.778Z,1006.98
2022-09-30T09:01:23.890Z,1006.96
2022-09-30T09:02:23.959Z,1007.01
2022-09-30T09:03:23.749Z,1007.01
2022-09-30T09:04:23.823Z,1006.99
2022-09-30T09:05:23.706Z,1006.96
2022-09-30T09:06:23.717Z,1006.96
2022-09-30T09:07:23.688Z,1006.99
2022-09-30T09:08:23.691Z,1007.01
2022-09-30T09:09:23.733Z,1007.00
2022-09-30T09:10:23.721Z,1007.03
2022-09-30T09:11:23.657Z,1007.01
2022-09-30T09:12:23.654Z,1007.02
2022-09-30T09:13:23.625Z,1007.03
2022-09-30T09:14:23.625Z,1007.06
2022-09-30T09:15:23.622Z,1007.05
2022-09-30T09:16:23.660Z,1007.09
2022-09-30T09:17:23.609Z,1007.10
2022-09-30T09:18:24.911Z,1007.09
2022-09-30T09:19:23.652Z,1007.08
2022-09-30T09:20:23.556Z,1007.07
2022-09-30T09:21:23.557Z,1007.08
2022-09-30T09:22:24.933Z,1007.10
2022-09-30T09:23:24.068Z,1007.06
2022-09-30T09:24:23.506Z,1007.05
2022-09-30T09:25:23.489Z,1007.07
2022-09-30T09:26:23.474Z,1007.05
2022-09-30T09:27:23.530Z,1007.03
2022-09-30T09:28:23.534Z,1007.00
2022-09-30T09:29:23.646Z,1007.01
2022-09-30T09:30:23.440Z,1006.99
2022-09-30T09:31:23.488Z,1007.04
2022-09-30T09:32:23.480Z,1006.99
2022-09-30T09:33:23.476Z,1006.98
2022-09-30T09:34:23.404Z,1007.00
2022-09-30T09:35:23.378Z,1006.97
2022-09-30T09:36:23.373Z,1006.98
2022-09-30T09:37:23.386Z,1006.96
2022-09-30T09:38:23.377Z,1006.94
2022-09-30T09:39:23.431Z,1006.94
2022-09-30T09:40:23.346Z,1006.93
2022-09-30T09:41:23.334Z,1006.93
2022-09-30T09:42:23.308Z,1006.92
2022-09-30T09:43:26.146Z,1006.92
2022-09-30T09:44:24.485Z,1006.96
2022-09-30T09:45:23.281Z,1006.96
2022-09-30T09:46:23.331Z,1006.97
2022-09-30T09:47:23.256Z,1006.97
2022-09-30T09:48:23.273Z,1006.92
2022-09-30T09:49:23.240Z,1006.94
2022-09-30T09:50:23.252Z,1006.97
2022-09-30T09:51:23.203Z,1006.93
2022-09-30T09:52:23.195Z,1006.94
2022-09-30T09:53:23.172Z,1006.94
2022-09-30T09:54:23.326Z,1006.91
2022-09-30T09:55:23.165Z,1006.91
2022-09-30T09:56:23.142Z,1006.87
2022-09-30T09:57:23.155Z,1006.88
2022-09-30T09:58:23.130Z,1006.90
2022-09-30T09:59:23.423Z,1006.91
2022-09-30T10:00:23.125Z,1006.93
2022-09-30T10:01:23.134Z,1006.90
2022-09-30T10:02:23.162Z,1006.94
2022-09-30T10:03:23.083Z,1006.85
2022-09-30T10:04:23.143Z,1006.87
2022-09-30T10:05:23.076Z,1006.84
2022-09-30T10:06:23.030Z,1006.84
2022-09-30T10:07:23.032Z,1006.82
2022-09-30T10:08:23.042Z,1006.80
2022-09-30T10:09:23.122Z,1006.82
2022-09-30T10:10:24.243Z,1006.80
2022-09-30T10:11:22.985Z,1006.80
2022-09-30T10:12:22.986Z,1006.78
2022-09-30T10:13:22.969Z,1006.79
2022-09-30T10:14:23.132Z,1006.75
2022-09-30T10:15:22.937Z,1006.75
2022-09-30T10:16:22.919Z,1006.73
2022-09-30T10:17:22.927Z,1006.75
2022-09-30T10:18:22.912Z,1006.75
2022-09-30T10:19:22.902Z,1006.76
2022-09-30T10:20:22.881Z,1006.76
2022-09-30T10:21:22.884Z,1006.75
2022-09-30T10:22:22.856Z,1006.79
2022-09-30T10:23:22.890Z,1006.76
2022-09-30T10:24:22.925Z,1006.76
2022-09-30T10:25:22.821Z,1006.71
2022-09-30T10:26:22.910Z,1006.76
2022-09-30T10:27:22.818Z,1006.74
2022-09-30T10:28:22.822Z,1006.77
2022-09-30T10:29:22.858Z,1006.75
2022-09-30T10:30:22.784Z,1006.75
2022-09-30T10:31:22.796Z,1006.80
2022-09-30T10:32:22.867Z,1006.74
2022-09-30T10:33:22.742Z,1006.74
2022-09-30T10:34:22.749Z,1006.75
2022-09-30T10:35:22.753Z,1006.72
2022-09-30T10:36:22.756Z,1006.74
2022-09-30T10:37:22.688Z,1006.74
2022-09-30T10:38:22.698Z,1006.75
2022-09-30T10:39:22.721Z,1006.74
2022-09-30T10:40:22.693Z,1006.78
2022-09-30T10:41:22.667Z,1006.76
2022-09-30T10:42:26.347Z,1006.70
2022-09-30T10:43:22.651Z,1006.72
2022-09-30T10:44:22.636Z,1006.72
2022-09-30T10:45:22.631Z,1006.70
2022-09-30T10:46:26.405Z,1006.69
2022-09-30T10:47:22.599Z,1006.69
2022-09-30T10:48:22.600Z,1006.64
2022-09-30T10:49:22.593Z,1006.63
2022-09-30T10:50:22.581Z,1006.63
2022-09-30T10:51:22.569Z,1006.61
2022-09-30T10:52:22.563Z,1006.64
2022-09-30T10:53:22.551Z,1006.59
2022-09-30T10:54:22.551Z,1006.61
2022-09-30T10:55:22.541Z,1006.62
2022-09-30T10:56:22.510Z,1006.63
2022-09-30T10:57:22.486Z,1006.67
2022-09-30T10:58:22.501Z,1006.66
2022-09-30T10:59:22.476Z,1006.63
2022-09-30T11:00:22.480Z,1006.64
2022-09-30T11:01:22.500Z,1006.65
2022-09-30T11:02:22.461Z,1006.63
2022-09-30T11:03:22.493Z,1006.61
2022-09-30T11:04:22.428Z,1006.59
2022-09-30T11:05:22.448Z,1006.59
2022-09-30T11:06:22.415Z,1006.58
2022-09-30T11:07:22.394Z,1006.55
2022-09-30T11:08:22.365Z,1006.57
2022-09-30T11:09:22.346Z,1006.50
2022-09-30T11:10:22.389Z,1006.53
2022-09-30T11:11:22.381Z,1006.51
2022-09-30T11:12:22.345Z,1006.54
2022-09-30T11:13:22.328Z,1006.48
2022-09-30T11:14:22.312Z,1006.50
2022-09-30T11:15:22.300Z,1006.46
2022-09-30T11:16:22.338Z,1006.50
2022-09-30T11:17:22.895Z,1006.49
2022-09-30T11:18:22.285Z,1006.55
2022-09-30T11:19:22.267Z,1006.60
2022-09-30T11:20:22.273Z,1006.63
2022-09-30T11:21:22.362Z,1006.59
2022-09-30T11:22:22.544Z,1006.61
2022-09-30T11:23:22.223Z,1006.51
2022-09-30T11:24:22.232Z,1006.56
2022-09-30T11:25:22.192Z,1006.51
2022-09-30T11:26:22.197Z,1006.49
2022-09-30T11:27:22.180Z,1006.55
2022-09-30T11:28:22.200Z,1006.54
2022-09-30T11:29:22.163Z,1006.47
2022-09-30T11:30:22.132Z,1006.46
2022-09-30T11:31:22.146Z,1006.47
2022-09-30T11:32:22.121Z,1006.40
2022-09-30T11:33:22.120Z,1006.43
2022-09-30T11:34:22.105Z,1006.42
2022-09-30T11:35:22.077Z,1006.39
2022-09-30T11:36:22.106Z,1006.39
2022-09-30T11:37:22.041Z,1006.40
2022-09-30T11:38:22.079Z,1006.38
2022-09-30T11:39:22.054Z,1006.41
2022-09-30T11:40:22.079Z,1006.37
2022-09-30T11:41:22.000Z,1006.40
2022-09-30T11:42:22.034Z,1006.40
2022-09-30T11:43:21.982Z,1006.38
2022-09-30T11:44:22.017Z,1006.41
2022-09-30T11:45:22.058Z,1006.41
2022-09-30T11:46:22.080Z,1006.40
2022-09-30T11:47:22.132Z,1006.37
2022-09-30T11:48:21.949Z,1006.40
2022-09-30T11:49:21.942Z,1006.40
2022-09-30T11:50:21.919Z,1006.38
2022-09-30T11:51:21.914Z,1006.38
2022-09-30T11:52:21.935Z,1006.40
2022-09-30T11:53:22.448Z,1006.36
2022-09-30T11:54:21.870Z,1006.37
2022-09-30T11:55:21.863Z,1006.36
2022-09-30T11:56:21.884Z,1006.36
2022-09-30T11:57:21.849Z,1006.35
2022-09-30T11:58:40.475Z,1006.36
2022-09-30T11:59:22.825Z,1006.35
2022-09-30T12:00:21.831Z,1006.37
2022-09-30T12:01:21.821Z,1006.38
2022-09-30T12:02:21.847Z,1006.35
2022-09-30T12:03:21.802Z,1006.36
2022-09-30T12:04:21.770Z,1006.37
2022-09-30T12:05:21.760Z,1006.39